createdAt,value
2023-05-25T00:00:49.788Z,80.09
2023-05-25T00:03:27.919Z,80.00
2023-05-25T00:05:54.636Z,79.92
2023-05-25T00:08:21.265Z,80.15
2023-05-25T00:10:48.545Z,80.14
2023-05-25T00:13:15.018Z,79.93
2023-05-25T00:15:41.575Z,80.47
2023-05-25T00:18:08.247Z,80.39
2023-05-25T00:20:35.405Z,80.91
2023-05-25T00:23:02.495Z,81.29
2023-05-25T00:25:29.590Z,81.53
2023-05-25T00:27:56.188Z,81.47
2023-05-25T00:30:22.746Z,81.36
2023-05-25T00:32:49.276Z,81.71
2023-05-25T00:35:15.857Z,81.49
2023-05-25T00:37:42.380Z,81.78
2023-05-25T00:40:14.203Z,81.19
2023-05-25T00:42:41.092Z,81.22
2023-05-25T00:45:08.113Z,81.05
2023-05-25T00:47:34.639Z,80.97
2023-05-25T00:50:02.077Z,81.56
2023-05-25T00:52:28.868Z,81.30
2023-05-25T00:54:58.242Z,81.45
2023-05-25T00:57:28.072Z,81.60
2023-05-25T00:59:58.016Z,81.45
2023-05-25T01:02:26.369Z,81.42
2023-05-25T01:04:59.792Z,81.08
2023-05-25T01:07:28.461Z,81.66
2023-05-25T01:10:00.076Z,81.59
2023-05-25T01:12:32.090Z,81.70
2023-05-25T01:15:00.534Z,81.18
2023-05-25T01:17:29.063Z,81.28
2023-05-25T01:20:09.651Z,81.45
2023-05-25T01:23:02.764Z,81.68
2023-05-25T01:25:45.043Z,82.26
2023-05-25T01:28:18.462Z,82.27
2023-05-25T01:30:48.776Z,82.25
2023-05-25T01:33:20.111Z,82.32
2023-05-25T01:35:47.808Z,82.29
2023-05-25T01:38:15.030Z,82.58
2023-05-25T01:40:41.556Z,82.35
2023-05-25T01:43:08.023Z,82.39
2023-05-25T01:45:35.527Z,82.83
2023-05-25T01:48:12.953Z,82.87
2023-05-25T01:50:51.499Z,83.08
2023-05-25T01:53:30.487Z,83.21
2023-05-25T01:56:01.349Z,83.11
2023-05-25T01:58:34.892Z,83.36
2023-05-25T02:01:04.368Z,83.46
2023-05-25T02:03:31.256Z,83.33
2023-05-25T02:05:58.281Z,82.75
2023-05-25T02:08:24.887Z,83.02
2023-05-25T02:10:51.489Z,83.34
2023-05-25T02:13:18.166Z,83.48
2023-05-25T02:15:44.855Z,82.76
2023-05-25T02:18:13.706Z,83.16
2023-05-25T02:20:40.503Z,82.72
2023-05-25T02:23:07.111Z,83.52
2023-05-25T02:25:35.917Z,82.94
2023-05-25T02:28:02.453Z,83.37
2023-05-25T02:30:28.898Z,83.26
2023-05-25T02:32:56.546Z,82.91
2023-05-25T02:35:23.269Z,83.48
2023-05-25T02:37:51.141Z,83.29
2023-05-25T02:40:17.998Z,83.80
2023-05-25T02:42:44.782Z,83.12
2023-05-25T02:45:11.566Z,83.58
2023-05-25T02:47:38.276Z,83.80
2023-05-25T02:50:05.807Z,83.36
2023-05-25T02:52:32.707Z,83.78
2023-05-25T02:54:59.249Z,83.88
2023-05-25T02:57:25.940Z,83.98
2023-05-25T02:59:52.758Z,83.50
2023-05-25T03:02:21.058Z,83.75
2023-05-25T03:04:49.828Z,84.35
2023-05-25T03:07:16.420Z,84.23
2023-05-25T03:09:42.971Z,84.23
2023-05-25T03:12:09.462Z,84.99
2023-05-25T03:14:35.912Z,85.17
2023-05-25T03:17:02.384Z,85.25
2023-05-25T03:19:28.871Z,85.86
2023-05-25T03:21:55.436Z,86.59
2023-05-25T03:24:24.210Z,86.17
2023-05-25T03:26:51.039Z,86.26
2023-05-25T03:29:17.585Z,86.41
2023-05-25T03:31:44.057Z,86.63
2023-05-25T03:34:10.634Z,86.23
2023-05-25T03:36:38.931Z,86.58
2023-05-25T03:39:07.076Z,87.04
2023-05-25T03:41:33.551Z,86.66
2023-05-25T03:43:59.986Z,86.71
2023-05-25T03:46:26.541Z,86.70
2023-05-25T03:48:56.034Z,87.08
2023-05-25T03:51:22.625Z,86.99
2023-05-25T03:53:49.078Z,86.90
2023-05-25T03:56:15.609Z,86.79
2023-05-25T03:58:42.071Z,87.27
2023-05-25T04:01:10.421Z,87.73
2023-05-25T04:03:37.214Z,86.99
2023-05-25T04:06:04.161Z,87.28
2023-05-25T04:08:30.718Z,87.86
2023-05-25T04:10:57.468Z,87.44
2023-05-25T04:13:24.826Z,87.32
2023-05-25T04:15:51.368Z,86.97
2023-05-25T04:18:19.049Z,87.70
2023-05-25T04:20:46.460Z,87.20
2023-05-25T04:23:12.907Z,87.31
2023-05-25T04:25:39.403Z,88.25
2023-05-25T04:28:08.366Z,88.10
2023-05-25T04:30:36.183Z,88.09
2023-05-25T04:33:03.068Z,88.49
2023-05-25T04:35:31.643Z,88.76
2023-05-25T04:38:00.642Z,88.82
2023-05-25T04:40:28.048Z,88.60
2023-05-25T04:42:55.847Z,88.60
2023-05-25T04:45:25.452Z,89.54
2023-05-25T04:47:52.593Z,89.08
2023-05-25T04:50:19.352Z,90.13
2023-05-25T04:52:45.855Z,91.12
2023-05-25T04:55:12.537Z,91.57
2023-05-25T04:57:39.476Z,91.52
2023-05-25T05:00:09.676Z,92.39
2023-05-25T05:02:38.106Z,92.01
2023-05-25T05:05:05.115Z,92.31
2023-05-25T05:07:31.748Z,93.13
2023-05-25T05:09:58.283Z,93.19
2023-05-25T05:12:24.782Z,93.55
2023-05-25T05:14:51.210Z,93.62
2023-05-25T05:17:17.724Z,93.46
2023-05-25T05:19:44.313Z,93.77
2023-05-25T05:22:13.225Z,94.13
2023-05-25T05:24:39.704Z,92.84
2023-05-25T05:27:06.195Z,93.11
2023-05-25T05:29:34.220Z,93.73
2023-05-25T05:32:00.909Z,93.95
2023-05-25T05:34:27.376Z,94.25
2023-05-25T05:36:57.907Z,94.35
2023-05-25T05:39:26.504Z,93.71
2023-05-25T05:41:53.874Z,93.21
2023-05-25T05:44:27.833Z,93.42
2023-05-25T05:47:02.033Z,93.76
2023-05-25T05:49:29.574Z,92.75
2023-05-25T05:51:56.534Z,92.61
2023-05-25T05:54:23.334Z,92.20
2023-05-25T05:56:50.929Z,91.71
2023-05-25T05:59:17.657Z,89.68
2023-05-25T06:01:44.296Z,87.15
2023-05-25T06:04:10.801Z,83.85
2023-05-25T06:06:37.730Z,82.30
2023-05-25T06:09:06.893Z,80.07
2023-05-25T06:11:37.584Z,79.83
2023-05-25T06:14:04.137Z,79.70
2023-05-25T06:16:30.959Z,82.15
2023-05-25T06:18:59.374Z,82.94
2023-05-25T06:21:26.230Z,84.22
2023-05-25T06:23:52.816Z,85.08
2023-05-25T06:26:19.348Z,85.96
2023-05-25T06:28:47.693Z,86.16
2023-05-25T06:31:14.240Z,86.80
2023-05-25T06:33:40.800Z,86.71
2023-05-25T06:36:08.798Z,86.25
2023-05-25T06:38:35.639Z,86.29
2023-05-25T06:41:03.566Z,86.17
2023-05-25T06:43:30.480Z,85.90
2023-05-25T06:45:56.984Z,85.69
2023-05-25T06:48:23.486Z,84.55
2023-05-25T06:50:49.996Z,84.93
2023-05-25T06:53:17.367Z,84.98
2023-05-25T06:55:44.467Z,85.34
2023-05-25T06:58:11.751Z,86.26
2023-05-25T07:00:38.250Z,85.03
2023-05-25T07:03:04.800Z,84.44
2023-05-25T07:05:31.322Z,82.78
2023-05-25T07:07:57.878Z,82.64
2023-05-25T07:10:24.335Z,82.37
2023-05-25T07:12:50.855Z,82.08
2023-05-25T07:15:17.469Z,80.52
2023-05-25T07:17:44.151Z,80.98
2023-05-25T07:20:13.247Z,79.92
2023-05-25T07:22:39.903Z,80.50
2023-05-25T07:25:06.922Z,80.39
2023-05-25T07:27:33.879Z,79.16
2023-05-25T07:30:00.363Z,77.40
2023-05-25T07:32:26.888Z,76.54
2023-05-25T07:34:54.134Z,76.72
2023-05-25T07:37:20.594Z,76.29
2023-05-25T07:39:47.121Z,75.71
2023-05-25T07:42:13.657Z,76.49
2023-05-25T07:44:40.094Z,77.01
2023-05-25T07:47:07.029Z,76.64
2023-05-25T07:49:33.715Z,76.52
2023-05-25T07:52:00.204Z,77.39
2023-05-25T07:54:26.672Z,77.43
2023-05-25T07:56:53.284Z,77.11
2023-05-25T07:59:19.734Z,77.37
2023-05-25T08:01:46.222Z,76.59
2023-05-25T08:04:13.010Z,75.92
2023-05-25T08:06:40.090Z,76.14
2023-05-25T08:09:07.956Z,75.75
2023-05-25T08:11:34.450Z,75.73
2023-05-25T08:14:00.945Z,75.33
2023-05-25T08:16:27.699Z,74.74
2023-05-25T08:18:54.300Z,75.28
2023-05-25T08:21:20.967Z,74.67
2023-05-25T08:23:47.954Z,73.61
2023-05-25T08:26:34.216Z,73.24
2023-05-25T08:29:02.387Z,72.78
2023-05-25T08:31:28.999Z,71.74
2023-05-25T08:33:55.608Z,70.70
2023-05-25T08:36:22.718Z,70.17
2023-05-25T08:38:49.158Z,69.35
2023-05-25T08:41:16.903Z,69.32
2023-05-25T08:43:43.569Z,69.65
2023-05-25T08:46:10.059Z,69.32
2023-05-25T08:48:42.457Z,70.04
2023-05-25T08:51:12.097Z,70.61
2023-05-25T08:53:41.236Z,69.26
2023-05-25T08:56:12.906Z,68.01
2023-05-25T08:58:53.064Z,68.66
2023-05-25T09:01:22.516Z,67.14
2023-05-25T09:03:50.233Z,66.55
2023-05-25T09:06:17.416Z,66.70
2023-05-25T09:08:44.983Z,66.20
2023-05-25T09:11:16.293Z,65.77
2023-05-25T09:13:43.550Z,67.24
2023-05-25T09:16:11.240Z,66.87
2023-05-25T09:18:37.776Z,67.83
2023-05-25T09:21:04.541Z,65.53
2023-05-25T09:23:31.389Z,66.60
2023-05-25T09:25:58.446Z,64.72
2023-05-25T09:28:27.422Z,64.06
2023-05-25T09:30:56.011Z,62.46
2023-05-25T09:33:22.829Z,62.09
2023-05-25T09:35:49.380Z,62.40
2023-05-25T09:38:17.280Z,61.00
2023-05-25T09:40:44.902Z,60.00
2023-05-25T09:43:17.246Z,59.89
2023-05-25T09:45:48.959Z,59.90
2023-05-25T09:48:15.630Z,59.68
2023-05-25T09:50:43.287Z,59.98
2023-05-25T09:53:11.076Z,59.94
2023-05-25T09:55:52.311Z,60.20
2023-05-25T09:58:23.768Z,59.95
2023-05-25T10:00:54.611Z,60.86
2023-05-25T10:03:21.800Z,60.54
2023-05-25T10:08:19.856Z,61.72
2023-05-25T10:10:49.842Z,60.97
2023-05-25T10:13:24.894Z,60.74
2023-05-25T10:15:54.598Z,58.34
2023-05-25T10:18:28.066Z,58.74
2023-05-25T10:21:03.178Z,58.88
2023-05-25T10:23:41.882Z,59.62
2023-05-25T10:26:09.915Z,59.12
2023-05-25T10:28:39.016Z,58.47
2023-05-25T10:31:05.918Z,58.83
2023-05-25T10:33:33.415Z,58.13
2023-05-25T10:36:09.942Z,59.56
2023-05-25T10:38:40.425Z,59.77
2023-05-25T10:41:10.884Z,57.91
2023-05-25T10:43:38.747Z,58.63
2023-05-25T10:46:08.915Z,57.22
2023-05-25T10:48:40.187Z,57.02
2023-05-25T10:51:08.985Z,56.18
2023-05-25T10:53:37.707Z,56.10
2023-05-25T10:56:06.411Z,55.63
2023-05-25T10:58:33.474Z,53.92
2023-05-25T11:01:01.506Z,54.37
2023-05-25T11:03:57.109Z,55.12
2023-05-25T11:06:40.449Z,54.74
2023-05-25T11:09:07.918Z,53.47
2023-05-25T11:11:43.489Z,54.17
2023-05-25T11:14:22.875Z,54.58
2023-05-25T11:17:18.214Z,54.64
2023-05-25T11:19:56.204Z,54.61
2023-05-25T11:22:35.402Z,55.29
2023-05-25T11:25:23.029Z,54.72
2023-05-25T11:27:51.040Z,55.90
2023-05-25T11:30:18.279Z,55.87
2023-05-25T11:32:51.132Z,56.27
2023-05-25T11:35:17.707Z,55.48
2023-05-25T11:37:50.820Z,54.70
2023-05-25T11:40:17.411Z,55.56
2023-05-25T11:42:48.328Z,54.54
2023-05-25T11:45:15.046Z,55.36
2023-05-25T11:47:41.726Z,55.26
2023-05-25T11:50:14.943Z,54.85
2023-05-25T11:52:41.591Z,54.88
2023-05-25T11:55:13.328Z,54.11
2023-05-25T11:57:40.620Z,53.88
2023-05-25T12:00:11.291Z,54.48
2023-05-25T12:02:39.504Z,54.94
2023-05-25T12:05:08.720Z,53.63
2023-05-25T12:07:44.015Z,54.12
2023-05-25T12:10:12.779Z,53.38
2023-05-25T12:12:42.550Z,53.29
2023-05-25T12:15:14.853Z,52.47
2023-05-25T12:17:43.427Z,52.44
2023-05-25T12:20:11.878Z,51.64
2023-05-25T12:22:40.108Z,51.98
2023-05-25T12:25:08.666Z,50.71
2023-05-25T12:27:35.205Z,51.96
2023-05-25T12:30:01.730Z,50.61
2023-05-25T12:32:28.368Z,51.37
2023-05-25T12:35:05.786Z,51.78
2023-05-25T12:37:33.487Z,53.29
2023-05-25T12:40:00.653Z,53.50
2023-05-25T12:42:27.549Z,53.43
2023-05-25T12:44:57.904Z,53.65
2023-05-25T12:47:27.894Z,53.10
2023-05-25T12:50:11.288Z,53.76
2023-05-25T12:52:39.889Z,52.00
2023-05-25T12:55:32.958Z,51.74
2023-05-25T12:58:02.735Z,51.35
2023-05-25T13:00:41.002Z,51.20
2023-05-25T13:03:08.294Z,51.10
2023-05-25T13:05:37.091Z,51.67
2023-05-25T13:08:04.448Z,51.24
2023-05-25T13:10:32.811Z,52.00
2023-05-25T13:13:00.613Z,51.80
2023-05-25T13:15:27.452Z,51.18
2023-05-25T13:17:56.284Z,51.32
2023-05-25T13:20:25.118Z,52.42
2023-05-25T13:22:53.141Z,50.84
2023-05-25T13:25:22.146Z,50.10
2023-05-25T13:27:50.480Z,49.78
2023-05-25T13:30:17.713Z,49.86
2023-05-25T13:32:44.929Z,50.38
2023-05-25T13:35:18.452Z,51.23
2023-05-25T13:37:45.870Z,50.81
2023-05-25T13:40:12.473Z,50.76
2023-05-25T13:42:38.986Z,50.74
2023-05-25T13:45:06.054Z,51.01
2023-05-25T13:47:32.770Z,50.76
2023-05-25T13:49:59.327Z,50.44
2023-05-25T13:52:27.005Z,51.21
2023-05-25T13:54:53.463Z,49.80
2023-05-25T13:57:21.359Z,48.60
2023-05-25T13:59:47.841Z,49.08
2023-05-25T14:02:14.525Z,48.96
2023-05-25T14:04:41.408Z,49.94
2023-05-25T14:07:07.917Z,48.83
2023-05-25T14:09:34.440Z,48.86
2023-05-25T14:12:01.524Z,47.74
2023-05-25T14:14:32.232Z,48.08
2023-05-25T14:17:00.387Z,48.18
2023-05-25T14:19:27.160Z,47.51
2023-05-25T14:22:11.106Z,47.95
2023-05-25T14:24:38.791Z,48.29
2023-05-25T14:27:07.116Z,48.49
2023-05-25T14:29:33.931Z,48.38
2023-05-25T14:32:00.619Z,45.98
2023-05-25T14:34:27.970Z,45.57
2023-05-25T14:36:54.467Z,46.83
2023-05-25T14:39:21.020Z,47.28
2023-05-25T14:41:47.523Z,46.68
2023-05-25T14:44:14.040Z,47.05
2023-05-25T14:46:40.720Z,45.63
2023-05-25T14:49:07.271Z,45.17
2023-05-25T14:51:33.721Z,45.80
2023-05-25T14:54:03.867Z,45.98
2023-05-25T14:56:30.692Z,47.01
2023-05-25T14:58:57.428Z,46.68
2023-05-25T15:01:25.499Z,45.80
2023-05-25T15:03:52.560Z,45.51
2023-05-25T15:06:19.533Z,45.30
2023-05-25T15:08:46.169Z,45.13
2023-05-25T15:11:12.715Z,45.23
2023-05-25T15:13:40.731Z,45.23
2023-05-25T15:16:11.243Z,45.76
2023-05-25T15:18:37.995Z,45.44
2023-05-25T15:21:04.612Z,46.57
2023-05-25T15:23:32.023Z,45.82
2023-05-25T15:26:03.101Z,46.26
2023-05-25T15:28:32.422Z,46.73
2023-05-25T15:31:01.717Z,46.41
2023-05-25T15:33:43.710Z,45.45
2023-05-25T15:36:15.138Z,46.06
2023-05-25T15:38:43.252Z,45.27
2023-05-25T15:41:09.878Z,45.53
2023-05-25T15:43:36.346Z,46.76
2023-05-25T15:46:02.844Z,46.51
2023-05-25T15:48:29.409Z,46.61
2023-05-25T15:50:55.866Z,46.87
2023-05-25T15:53:22.764Z,46.47
2023-05-25T15:55:49.241Z,45.68
2023-05-25T15:58:17.744Z,45.93
2023-05-25T16:00:44.265Z,46.25
2023-05-25T16:03:10.783Z,47.31
2023-05-25T16:05:37.444Z,47.30
2023-05-25T16:08:03.933Z,45.86
2023-05-25T16:10:30.483Z,46.31
2023-05-25T16:12:56.957Z,46.53
2023-05-25T16:15:23.743Z,47.00
2023-05-25T16:17:50.408Z,47.10
2023-05-25T16:20:17.015Z,45.86
2023-05-25T16:22:43.484Z,47.16
2023-05-25T16:25:10.472Z,46.40
2023-05-25T16:27:37.032Z,46.90
2023-05-25T16:30:03.916Z,47.51
2023-05-25T16:32:30.562Z,47.40
2023-05-25T16:34:57.028Z,46.95
2023-05-25T16:37:23.548Z,47.27
2023-05-25T16:39:50.042Z,47.33
2023-05-25T16:42:16.708Z,48.04
2023-05-25T16:44:43.185Z,47.65
2023-05-25T16:47:09.701Z,47.34
2023-05-25T16:49:36.172Z,47.36
2023-05-25T16:52:02.697Z,47.03
2023-05-25T16:54:29.617Z,46.77
2023-05-25T16:56:56.190Z,46.12
2023-05-25T16:59:22.695Z,46.90
2023-05-25T17:01:49.279Z,46.42
2023-05-25T17:04:15.958Z,45.47
2023-05-25T17:06:42.439Z,45.23
2023-05-25T17:09:09.189Z,45.63
2023-05-25T17:11:35.641Z,45.85
2023-05-25T17:14:02.099Z,45.52
2023-05-25T17:16:28.690Z,45.92
2023-05-25T17:18:55.350Z,45.81
2023-05-25T17:21:21.852Z,45.75
2023-05-25T17:23:49.153Z,45.31
2023-05-25T17:26:15.752Z,44.83
2023-05-25T17:28:42.237Z,44.98
2023-05-25T17:31:09.447Z,44.90
2023-05-25T17:33:36.104Z,44.40
2023-05-25T17:36:02.563Z,45.14
2023-05-25T17:38:29.049Z,45.47
2023-05-25T17:40:55.846Z,46.10
2023-05-25T17:43:22.477Z,46.21
2023-05-25T17:45:48.971Z,47.62
2023-05-25T17:48:15.799Z,47.52
2023-05-25T17:50:42.336Z,46.97
2023-05-25T17:53:08.873Z,46.96
2023-05-25T17:55:35.426Z,46.98
2023-05-25T17:58:01.929Z,47.76
2023-05-25T18:00:30.320Z,48.12
2023-05-25T18:02:56.872Z,48.36
2023-05-25T18:05:23.557Z,49.18
2023-05-25T18:07:50.124Z,49.45
2023-05-25T18:10:16.692Z,49.48
2023-05-25T18:12:46.096Z,49.24
2023-05-25T18:15:12.854Z,49.66
2023-05-25T18:17:39.400Z,49.64
2023-05-25T18:20:06.598Z,49.77
2023-05-25T18:22:33.134Z,50.28
2023-05-25T18:25:00.389Z,50.82
2023-05-25T18:27:26.856Z,50.71
2023-05-25T18:29:53.516Z,50.96
2023-05-25T18:32:20.116Z,51.26
2023-05-25T18:34:48.299Z,51.06
2023-05-25T18:37:15.227Z,51.87
2023-05-25T18:39:41.977Z,51.36
2023-05-25T18:42:08.759Z,51.63
2023-05-25T18:44:36.479Z,52.56
2023-05-25T18:47:02.947Z,52.15
2023-05-25T18:49:34.470Z,52.43
2023-05-25T18:52:01.622Z,52.87
2023-05-25T18:54:28.287Z,53.14
2023-05-25T18:56:55.003Z,52.86
2023-05-25T18:59:21.484Z,53.37
2023-05-25T19:01:48.170Z,53.41
2023-05-25T19:04:14.848Z,53.72
2023-05-25T19:06:41.544Z,54.04
2023-05-25T19:09:08.002Z,54.08
2023-05-25T19:11:34.495Z,54.34
2023-05-25T19:14:00.960Z,54.54
2023-05-25T19:16:27.551Z,54.98
2023-05-25T19:18:54.087Z,55.12
2023-05-25T19:21:20.689Z,55.37
2023-05-25T19:23:47.189Z,55.42
2023-05-25T19:26:13.711Z,55.63
2023-05-25T19:28:40.417Z,55.99
2023-05-25T19:31:06.885Z,56.08
2023-05-25T19:33:33.457Z,56.27
2023-05-25T19:36:00.109Z,56.46
2023-05-25T19:38:31.439Z,56.44
2023-05-25T19:41:04.285Z,56.63
2023-05-25T19:43:30.872Z,56.62
2023-05-25T19:45:57.441Z,57.45
2023-05-25T19:48:25.285Z,57.28
2023-05-25T19:50:53.172Z,57.48
2023-05-25T19:53:19.657Z,57.71
2023-05-25T19:55:46.380Z,57.68
2023-05-25T19:58:13.009Z,57.98
2023-05-25T20:00:39.491Z,58.04
2023-05-25T20:03:06.150Z,57.94
2023-05-25T20:05:32.743Z,58.27
2023-05-25T20:07:59.310Z,58.24
2023-05-25T20:10:25.888Z,58.70
2023-05-25T20:12:52.422Z,58.69
2023-05-25T20:15:18.896Z,59.09
2023-05-25T20:17:45.452Z,59.23
2023-05-25T20:20:12.154Z,58.92
2023-05-25T20:22:38.740Z,59.17
2023-05-25T20:25:05.633Z,59.56
2023-05-25T20:27:32.129Z,59.45
2023-05-25T20:29:58.669Z,59.85
2023-05-25T20:32:25.206Z,59.91
2023-05-25T20:34:52.227Z,60.32
2023-05-25T20:37:18.706Z,60.32
2023-05-25T20:39:45.295Z,61.03
2023-05-25T20:42:13.909Z,60.77
2023-05-25T20:44:40.537Z,60.75
2023-05-25T20:47:07.182Z,60.97
2023-05-25T20:49:33.718Z,61.41
2023-05-25T20:52:00.239Z,61.34
2023-05-25T20:54:26.881Z,61.86
2023-05-25T20:56:53.534Z,62.12
2023-05-25T20:59:20.121Z,62.41
2023-05-25T21:01:46.620Z,62.22
2023-05-25T21:04:13.258Z,62.69
2023-05-25T21:06:40.065Z,62.04
2023-05-25T21:09:06.576Z,62.33
2023-05-25T21:11:33.196Z,62.51
2023-05-25T21:13:59.675Z,63.08
2023-05-25T21:16:26.297Z,62.83
2023-05-25T21:18:52.773Z,62.91
2023-05-25T21:21:19.335Z,63.44
2023-05-25T21:23:46.072Z,63.39
2023-05-25T21:26:12.617Z,63.47
2023-05-25T21:28:39.071Z,63.93
2023-05-25T21:31:05.669Z,64.02
2023-05-25T21:33:35.762Z,63.86
2023-05-25T21:36:02.876Z,64.50
2023-05-25T21:38:29.418Z,64.58
2023-05-25T21:40:56.037Z,64.42
2023-05-25T21:43:22.567Z,64.54
2023-05-25T21:45:49.048Z,64.98
2023-05-25T21:48:15.541Z,65.03
2023-05-25T21:50:42.011Z,65.27
2023-05-25T21:53:08.468Z,65.47
2023-05-25T21:55:34.915Z,65.88
2023-05-25T21:58:01.405Z,65.77
2023-05-25T22:00:27.892Z,66.15
2023-05-25T22:02:54.508Z,65.90
2023-05-25T22:05:21.112Z,66.25
2023-05-25T22:07:47.677Z,66.44
2023-05-25T22:10:14.270Z,66.78
2023-05-25T22:12:40.792Z,67.22
2023-05-25T22:15:07.853Z,67.34
2023-05-25T22:17:34.424Z,67.53
2023-05-25T22:20:07.948Z,67.70
2023-05-25T22:22:34.777Z,68.23
2023-05-25T22:25:01.273Z,68.21
2023-05-25T22:27:27.907Z,68.30
2023-05-25T22:29:54.378Z,68.77
2023-05-25T22:32:21.041Z,68.53
2023-05-25T22:34:47.591Z,68.90
2023-05-25T22:37:14.219Z,69.22
2023-05-25T22:39:40.683Z,69.03
2023-05-25T22:42:07.338Z,69.21
2023-05-25T22:44:36.031Z,69.43
2023-05-25T22:47:03.012Z,69.62
2023-05-25T22:49:29.608Z,69.71
2023-05-25T22:51:56.147Z,69.85
2023-05-25T22:54:22.576Z,70.15
2023-05-25T22:56:49.047Z,70.27
2023-05-25T22:59:15.827Z,70.12
2023-05-25T23:01:42.617Z,70.43
2023-05-25T23:04:09.313Z,70.52
2023-05-25T23:06:36.573Z,70.55
2023-05-25T23:09:03.177Z,70.57
2023-05-25T23:11:29.623Z,70.81
2023-05-25T23:13:56.077Z,70.88
2023-05-25T23:16:22.708Z,71.31
2023-05-25T23:18:49.278Z,71.35
2023-05-25T23:21:16.180Z,71.53
2023-05-25T23:23:42.686Z,71.60
2023-05-25T23:26:09.153Z,71.50
2023-05-25T23:28:35.775Z,71.91
2023-05-25T23:31:02.307Z,72.06
2023-05-25T23:33:29.313Z,72.03
2023-05-25T23:35:55.968Z,72.02
2023-05-25T23:38:22.512Z,72.35
2023-05-25T23:40:48.970Z,72.85
2023-05-25T23:43:16.312Z,72.64
2023-05-25T23:45:43.115Z,72.86
2023-05-25T23:48:09.825Z,72.80
2023-05-25T23:50:36.414Z,72.91
2023-05-25T23:53:02.956Z,73.13
2023-05-25T23:55:30.592Z,73.23
2023-05-25T23:57:57.057Z,73.98
